createdAt,value
2023-01-15T00:00:10.802Z,9.99
2023-01-15T00:02:17.423Z,10.00
2023-01-15T00:04:22.471Z,10.01
2023-01-15T00:06:32.780Z,10.03
2023-01-15T00:08:38.371Z,10.04
2023-01-15T00:10:43.303Z,10.01
2023-01-15T00:12:48.157Z,10.07
2023-01-15T00:14:53.215Z,10.04
2023-01-15T00:16:58.106Z,10.04
2023-01-15T00:19:04.726Z,10.05
2023-01-15T00:21:10.909Z,10.03
2023-01-15T00:23:38.602Z,10.04
2023-01-15T00:25:55.888Z,10.03
2023-01-15T00:27:58.263Z,10.00
2023-01-15T00:30:03.075Z,9.98
2023-01-15T00:32:09.821Z,9.98
2023-01-15T00:34:14.745Z,9.97
2023-01-15T00:36:19.669Z,9.99
2023-01-15T00:38:27.069Z,10.00
2023-01-15T00:40:34.688Z,9.97
2023-01-15T00:42:39.508Z,9.97
2023-01-15T00:44:44.400Z,10.00
2023-01-15T00:46:49.454Z,9.98
2023-01-15T00:48:54.315Z,9.98
2023-01-15T00:51:00.521Z,10.01
2023-01-15T00:53:05.409Z,9.99
2023-01-15T00:55:13.082Z,9.97
2023-01-15T00:57:19.069Z,9.97
2023-01-15T00:59:26.855Z,10.00
2023-01-15T01:01:32.043Z,10.07
2023-01-15T01:03:37.057Z,10.11
2023-01-15T01:05:41.891Z,10.16
2023-01-15T01:07:46.728Z,10.23
2023-01-15T01:09:51.982Z,10.24
2023-01-15T01:12:00.570Z,10.28
2023-01-15T01:14:05.499Z,10.30
2023-01-15T01:16:24.951Z,10.36
2023-01-15T01:18:30.901Z,10.38
2023-01-15T01:20:37.041Z,10.42
2023-01-15T01:22:43.585Z,10.46
2023-01-15T01:24:51.464Z,10.51
2023-01-15T01:26:57.227Z,10.55
2023-01-15T01:29:05.955Z,10.58
2023-01-15T01:31:12.151Z,10.58
2023-01-15T01:33:19.672Z,10.62
2023-01-15T01:35:24.468Z,10.61
2023-01-15T01:37:30.736Z,10.65
2023-01-15T01:39:35.632Z,10.63
2023-01-15T01:41:40.624Z,10.60
2023-01-15T01:44:01.198Z,10.67
2023-01-15T01:46:08.908Z,10.61
2023-01-15T01:48:14.160Z,10.60
2023-01-15T01:50:22.120Z,10.63
2023-01-15T01:52:30.452Z,10.63
2023-01-15T01:54:38.929Z,10.65
2023-01-15T01:56:44.799Z,10.65
2023-01-15T01:58:55.071Z,10.64
2023-01-15T02:01:00.390Z,10.70
2023-01-15T02:03:10.711Z,10.73
2023-01-15T02:05:20.698Z,10.74
2023-01-15T02:07:28.005Z,10.68
2023-01-15T02:09:33.173Z,10.73
2023-01-15T02:11:38.827Z,10.75
2023-01-15T02:13:50.316Z,10.79
2023-01-15T02:16:03.362Z,10.78
2023-01-15T02:18:19.665Z,10.84
2023-01-15T02:20:32.496Z,10.82
2023-01-15T02:22:47.958Z,10.82
2023-01-15T02:25:04.650Z,10.85
2023-01-15T02:27:18.132Z,10.91
2023-01-15T02:29:31.903Z,10.94
2023-01-15T02:31:40.281Z,10.93
2023-01-15T02:33:50.824Z,10.95
2023-01-15T02:36:01.155Z,10.93
2023-01-15T02:38:13.956Z,10.91
2023-01-15T02:40:21.557Z,10.87
2023-01-15T02:42:33.262Z,10.90
2023-01-15T02:44:43.967Z,10.87
2023-01-15T02:46:53.219Z,10.89
2023-01-15T02:49:00.289Z,10.90
2023-01-15T02:51:12.974Z,10.88
2023-01-15T02:53:33.411Z,10.89
2023-01-15T02:55:43.693Z,10.85
2023-01-15T02:57:56.245Z,10.90
2023-01-15T03:00:06.748Z,10.90
2023-01-15T03:02:16.795Z,10.90
2023-01-15T03:04:26.550Z,10.91
2023-01-15T03:06:40.220Z,10.91
2023-01-15T03:08:46.226Z,10.88
2023-01-15T03:10:55.712Z,10.88
2023-01-15T03:13:06.277Z,10.92
2023-01-15T03:15:44.494Z,10.94
2023-01-15T03:17:56.833Z,10.92
2023-01-15T03:20:09.444Z,10.94
2023-01-15T03:22:19.932Z,10.98
2023-01-15T03:24:30.468Z,10.96
2023-01-15T03:26:36.433Z,11.00
2023-01-15T03:28:46.132Z,11.03
2023-01-15T03:30:51.904Z,11.06
2023-01-15T03:32:58.355Z,11.07
2023-01-15T03:35:04.287Z,11.07
2023-01-15T03:37:10.380Z,11.09
2023-01-15T03:39:16.028Z,11.07
2023-01-15T03:41:43.674Z,11.11
2023-01-15T03:43:59.163Z,11.13
2023-01-15T03:46:09.644Z,11.13
2023-01-15T03:48:23.564Z,11.20
2023-01-15T03:50:34.482Z,11.22
2023-01-15T03:52:47.989Z,11.20
2023-01-15T03:55:02.380Z,11.21
2023-01-15T03:57:13.990Z,11.18
2023-01-15T03:59:26.279Z,11.22
2023-01-15T04:01:42.732Z,11.21
2023-01-15T04:03:50.630Z,11.17
2023-01-15T04:05:59.679Z,11.17
2023-01-15T04:08:07.507Z,11.12
2023-01-15T04:10:14.621Z,11.12
2023-01-15T04:12:19.503Z,11.06
2023-01-15T04:14:32.750Z,11.08
2023-01-15T04:16:44.250Z,11.06
2023-01-15T04:18:50.744Z,11.04
2023-01-15T04:20:56.797Z,10.99
2023-01-15T04:23:01.664Z,10.97
2023-01-15T04:25:06.978Z,10.91
2023-01-15T04:27:13.577Z,10.85
2023-01-15T04:29:18.355Z,10.81
2023-01-15T04:31:25.955Z,10.78
2023-01-15T04:33:30.832Z,10.76
2023-01-15T04:35:36.230Z,10.78
2023-01-15T04:37:41.076Z,10.72
2023-01-15T04:39:46.346Z,10.74
2023-01-15T04:42:05.440Z,10.74
2023-01-15T04:44:07.909Z,10.70
2023-01-15T04:46:12.851Z,10.73
2023-01-15T04:48:20.296Z,10.74
2023-01-15T04:50:25.052Z,10.73
2023-01-15T04:52:29.997Z,10.75
2023-01-15T04:54:34.957Z,10.77
2023-01-15T04:56:42.961Z,10.73
2023-01-15T04:58:47.869Z,10.72
2023-01-15T05:00:52.711Z,10.72
2023-01-15T05:02:57.613Z,10.75
2023-01-15T05:05:05.077Z,10.72
2023-01-15T05:07:09.965Z,10.77
2023-01-15T05:09:14.796Z,10.81
2023-01-15T05:11:19.852Z,10.80
2023-01-15T05:13:24.686Z,10.87
2023-01-15T05:15:29.583Z,10.85
2023-01-15T05:17:35.570Z,10.88
2023-01-15T05:19:40.594Z,10.89
2023-01-15T05:21:48.291Z,10.88
2023-01-15T05:23:55.876Z,10.88
2023-01-15T05:26:00.853Z,10.93
2023-01-15T05:28:05.778Z,10.92
2023-01-15T05:30:12.304Z,10.96
2023-01-15T05:32:17.181Z,10.92
2023-01-15T05:34:22.008Z,10.93
2023-01-15T05:36:29.121Z,10.96
2023-01-15T05:38:37.105Z,11.00
2023-01-15T05:40:41.894Z,11.02
2023-01-15T05:42:46.861Z,11.05
2023-01-15T05:44:51.871Z,11.05
2023-01-15T05:46:58.787Z,11.07
2023-01-15T05:49:04.333Z,11.05
2023-01-15T05:51:09.342Z,11.12
2023-01-15T05:53:14.139Z,11.09
2023-01-15T05:55:21.702Z,11.14
2023-01-15T05:57:26.518Z,11.18
2023-01-15T05:59:33.266Z,11.17
2023-01-15T06:01:38.717Z,11.15
2023-01-15T06:03:44.364Z,11.19
2023-01-15T06:05:53.397Z,11.19
2023-01-15T06:07:59.995Z,11.14
2023-01-15T06:10:06.219Z,11.13
2023-01-15T06:12:13.684Z,11.13
2023-01-15T06:14:19.061Z,11.07
2023-01-15T06:16:25.273Z,11.08
2023-01-15T06:18:30.205Z,11.02
2023-01-15T06:20:38.032Z,10.93
2023-01-15T06:22:42.833Z,10.90
2023-01-15T06:24:47.664Z,10.58
2023-01-15T06:26:53.003Z,9.86
2023-01-15T06:29:02.023Z,9.42
2023-01-15T06:31:08.528Z,9.26
2023-01-15T06:33:13.387Z,9.07
2023-01-15T06:35:18.394Z,8.97
2023-01-15T06:37:23.231Z,9.02
2023-01-15T06:39:28.172Z,9.01
2023-01-15T06:41:45.368Z,8.99
2023-01-15T06:44:08.379Z,8.91
2023-01-15T06:46:28.779Z,8.72
2023-01-15T06:48:33.740Z,8.63
2023-01-15T06:50:38.667Z,8.52
2023-01-15T06:52:43.593Z,8.41
2023-01-15T06:54:48.668Z,8.28
2023-01-15T06:56:53.559Z,8.25
2023-01-15T06:58:58.979Z,8.15
2023-01-15T07:01:03.893Z,8.08
2023-01-15T07:03:14.313Z,8.01
2023-01-15T07:05:19.387Z,7.93
2023-01-15T07:07:25.182Z,7.98
2023-01-15T07:09:29.990Z,7.96
2023-01-15T07:11:35.809Z,7.91
2023-01-15T07:13:40.651Z,7.93
2023-01-15T07:15:45.494Z,7.92
2023-01-15T07:17:50.299Z,7.85
2023-01-15T07:19:57.670Z,7.72
2023-01-15T07:22:02.491Z,7.71
2023-01-15T07:24:08.463Z,7.70
2023-01-15T07:26:13.307Z,7.69
2023-01-15T07:28:18.389Z,7.68
2023-01-15T07:30:23.215Z,7.61
2023-01-15T07:32:28.115Z,7.61
2023-01-15T07:34:33.048Z,7.55
2023-01-15T07:36:40.968Z,7.65
2023-01-15T07:38:45.842Z,7.67
2023-01-15T07:41:11.409Z,7.68
2023-01-15T07:43:28.756Z,7.51
2023-01-15T07:45:51.965Z,7.38
2023-01-15T07:48:09.857Z,7.39
2023-01-15T07:50:17.329Z,7.40
2023-01-15T07:52:25.584Z,7.31
2023-01-15T07:54:30.554Z,7.24
2023-01-15T07:56:35.485Z,7.19
2023-01-15T07:58:40.306Z,7.13
2023-01-15T08:00:45.179Z,7.12
2023-01-15T08:02:50.970Z,7.05
2023-01-15T08:04:55.970Z,6.99
2023-01-15T08:07:02.886Z,6.93
2023-01-15T08:09:10.511Z,6.86
2023-01-15T08:11:27.780Z,6.91
2023-01-15T08:13:47.599Z,6.90
2023-01-15T08:15:52.448Z,6.94
2023-01-15T08:17:57.257Z,6.95
2023-01-15T08:20:02.248Z,6.90
2023-01-15T08:22:07.189Z,6.79
2023-01-15T08:24:14.728Z,6.65
2023-01-15T08:26:19.562Z,6.66
2023-01-15T08:28:24.735Z,6.68
2023-01-15T08:30:29.555Z,6.67
2023-01-15T08:32:35.044Z,6.53
2023-01-15T08:34:39.974Z,6.55
2023-01-15T08:36:44.864Z,6.50
2023-01-15T08:38:52.049Z,6.54
2023-01-15T08:41:03.868Z,6.54
2023-01-15T08:43:08.664Z,6.65
2023-01-15T08:45:14.941Z,6.65
2023-01-15T08:47:20.480Z,6.64
2023-01-15T08:49:25.570Z,6.57
2023-01-15T08:51:30.524Z,6.54
2023-01-15T08:53:35.481Z,6.65
2023-01-15T08:55:41.009Z,6.74
2023-01-15T08:57:48.682Z,6.67
2023-01-15T08:59:53.538Z,6.61
2023-01-15T09:01:58.462Z,6.54
2023-01-15T09:04:03.313Z,6.47
2023-01-15T09:06:08.835Z,6.40
2023-01-15T09:08:13.647Z,6.44
2023-01-15T09:10:19.745Z,6.48
2023-01-15T09:12:26.621Z,6.48
2023-01-15T09:14:59.717Z,6.58
2023-01-15T09:16:58.987Z,6.68
2023-01-15T09:19:03.932Z,6.69
2023-01-15T09:21:09.046Z,6.65
2023-01-15T09:23:13.955Z,6.67
2023-01-15T09:25:20.184Z,6.55
2023-01-15T09:27:25.175Z,6.61
2023-01-15T09:29:29.994Z,6.83
2023-01-15T09:31:37.541Z,6.96
2023-01-15T09:33:42.333Z,6.88
2023-01-15T09:35:51.241Z,6.84
2023-01-15T09:37:56.567Z,6.82
2023-01-15T09:40:02.486Z,6.80
2023-01-15T09:42:16.304Z,6.83
2023-01-15T09:44:33.728Z,6.89
2023-01-15T09:46:52.468Z,6.87
2023-01-15T09:49:04.647Z,6.94
2023-01-15T09:51:19.593Z,7.00
2023-01-15T09:53:45.792Z,6.97
2023-01-15T09:55:53.411Z,7.21
2023-01-15T09:58:01.957Z,7.39
2023-01-15T10:00:09.046Z,7.51
2023-01-15T10:02:28.781Z,7.24
2023-01-15T10:04:40.118Z,7.29
2023-01-15T10:06:48.781Z,7.30
2023-01-15T10:09:04.458Z,7.11
2023-01-15T10:11:45.741Z,7.13
2023-01-15T10:13:52.544Z,7.04
2023-01-15T10:15:58.674Z,6.95
2023-01-15T10:18:08.899Z,6.96
2023-01-15T10:20:40.766Z,6.99
2023-01-15T10:22:59.690Z,6.94
2023-01-15T10:25:07.300Z,6.94
2023-01-15T10:27:21.079Z,6.85
2023-01-15T10:29:33.178Z,6.89
2023-01-15T10:31:54.132Z,6.78
2023-01-15T10:34:22.755Z,6.82
2023-01-15T10:36:36.484Z,6.79
2023-01-15T10:38:48.610Z,6.79
2023-01-15T10:41:20.389Z,6.65
2023-01-15T10:43:30.446Z,6.69
2023-01-15T10:45:39.367Z,6.74
2023-01-15T10:47:51.283Z,6.90
2023-01-15T10:50:00.211Z,6.97
2023-01-15T10:52:16.739Z,7.11
2023-01-15T10:54:28.907Z,7.21
2023-01-15T10:56:40.554Z,7.25
2023-01-15T10:58:52.218Z,7.28
2023-01-15T11:01:02.625Z,7.28
2023-01-15T11:03:11.844Z,7.32
2023-01-15T11:05:22.600Z,7.29
2023-01-15T11:07:35.864Z,7.16
2023-01-15T11:09:41.095Z,7.10
2023-01-15T11:12:01.847Z,7.00
2023-01-15T11:14:19.152Z,7.09
2023-01-15T11:16:40.018Z,7.28
2023-01-15T11:19:00.249Z,7.29
2023-01-15T11:21:14.665Z,7.35
2023-01-15T11:23:23.513Z,7.30
2023-01-15T11:25:31.242Z,7.32
2023-01-15T11:27:38.730Z,7.34
2023-01-15T11:29:46.780Z,7.37
2023-01-15T11:31:52.259Z,7.32
2023-01-15T11:34:02.287Z,7.26
2023-01-15T11:36:21.942Z,7.22
2023-01-15T11:38:28.277Z,7.06
2023-01-15T11:40:33.630Z,6.91
2023-01-15T11:42:53.325Z,6.82
2023-01-15T11:45:12.776Z,6.74
2023-01-15T11:47:34.156Z,6.57
2023-01-15T11:49:52.086Z,6.50
2023-01-15T11:52:01.389Z,6.54
2023-01-15T11:54:11.056Z,6.49
2023-01-15T11:56:19.336Z,6.43
2023-01-15T11:58:25.139Z,6.50
2023-01-15T12:00:33.846Z,6.43
2023-01-15T12:02:42.971Z,6.39
2023-01-15T12:04:55.651Z,6.41
2023-01-15T12:07:04.692Z,6.44
2023-01-15T12:09:21.754Z,6.50
2023-01-15T12:11:59.836Z,6.36
2023-01-15T12:14:21.877Z,6.35
2023-01-15T12:16:35.648Z,6.26
2023-01-15T12:18:53.088Z,6.27
2023-01-15T12:21:06.759Z,6.27
2023-01-15T12:23:40.020Z,6.28
2023-01-15T12:25:56.015Z,6.19
2023-01-15T12:28:04.832Z,6.06
2023-01-15T12:30:22.212Z,6.05
2023-01-15T12:32:32.719Z,5.95
2023-01-15T12:34:44.507Z,5.96
2023-01-15T12:36:55.696Z,5.98
2023-01-15T12:39:06.616Z,6.00
2023-01-15T12:41:19.253Z,5.86
2023-01-15T12:43:40.351Z,5.85
2023-01-15T12:45:50.952Z,5.77
2023-01-15T12:48:03.001Z,5.90
2023-01-15T12:50:23.397Z,6.01
2023-01-15T12:52:33.994Z,6.09
2023-01-15T12:54:47.692Z,6.09
2023-01-15T12:57:02.935Z,6.08
2023-01-15T12:59:13.232Z,6.00
2023-01-15T13:01:32.808Z,5.93
2023-01-15T13:03:51.091Z,5.96
2023-01-15T13:06:00.743Z,6.05
2023-01-15T13:08:13.615Z,5.94
2023-01-15T13:10:25.138Z,5.80
2023-01-15T13:12:31.959Z,5.42
2023-01-15T13:14:37.726Z,5.21
2023-01-15T13:16:51.449Z,4.94
2023-01-15T13:19:09.731Z,4.69
2023-01-15T13:21:17.239Z,4.49
2023-01-15T13:23:40.337Z,4.47
2023-01-15T13:26:01.215Z,4.46
2023-01-15T13:28:21.456Z,4.52
2023-01-15T13:30:48.005Z,4.45
2023-01-15T13:32:56.615Z,4.50
2023-01-15T13:35:10.132Z,4.53
2023-01-15T13:37:24.957Z,4.66
2023-01-15T13:39:39.912Z,4.60
2023-01-15T13:42:04.140Z,4.64
2023-01-15T13:44:15.630Z,4.56
2023-01-15T13:46:23.871Z,4.78
2023-01-15T13:48:33.837Z,4.84
2023-01-15T13:50:43.278Z,4.74
2023-01-15T13:52:49.386Z,4.76
2023-01-15T13:54:55.766Z,4.82
2023-01-15T13:57:13.288Z,4.78
2023-01-15T13:59:42.685Z,4.88
2023-01-15T14:01:47.656Z,4.87
2023-01-15T14:04:06.543Z,5.00
2023-01-15T14:06:12.594Z,5.05
2023-01-15T14:08:19.696Z,5.22
2023-01-15T14:10:36.840Z,5.34
2023-01-15T14:12:57.259Z,5.38
2023-01-15T14:15:28.694Z,5.57
2023-01-15T14:18:13.492Z,5.66
2023-01-15T14:20:39.753Z,5.61
2023-01-15T14:22:54.345Z,5.65
2023-01-15T14:25:21.478Z,5.64
2023-01-15T14:27:44.374Z,5.54
2023-01-15T14:30:11.616Z,5.42
2023-01-15T14:32:30.931Z,5.40
2023-01-15T14:34:38.533Z,5.39
2023-01-15T14:36:52.243Z,5.43
2023-01-15T14:39:00.891Z,5.41
2023-01-15T14:41:12.713Z,5.53
2023-01-15T14:43:20.421Z,5.48
2023-01-15T14:45:32.329Z,5.56
2023-01-15T14:47:39.872Z,5.66
2023-01-15T14:49:50.093Z,5.63
2023-01-15T14:51:55.142Z,5.60
2023-01-15T14:54:02.344Z,5.58
2023-01-15T14:56:16.286Z,5.51
2023-01-15T14:58:35.667Z,5.61
2023-01-15T15:00:51.020Z,5.58
2023-01-15T15:02:56.101Z,5.45
2023-01-15T15:05:03.157Z,5.46
2023-01-15T15:07:14.392Z,5.35
2023-01-15T15:09:36.388Z,5.30
2023-01-15T15:12:01.019Z,5.32
2023-01-15T15:14:09.003Z,5.25
2023-01-15T15:16:24.912Z,5.22
2023-01-15T15:18:36.314Z,5.26
2023-01-15T15:20:54.128Z,5.17
2023-01-15T15:23:05.055Z,5.13
2023-01-15T15:25:17.625Z,5.07
2023-01-15T15:27:26.811Z,4.87
2023-01-15T15:29:32.008Z,4.89
2023-01-15T15:31:42.541Z,4.82
2023-01-15T15:33:49.873Z,4.79
2023-01-15T15:35:57.737Z,4.65
2023-01-15T15:38:06.326Z,4.69
2023-01-15T15:40:20.140Z,4.69
2023-01-15T15:42:43.691Z,4.80
2023-01-15T15:45:06.197Z,4.74
2023-01-15T15:47:37.133Z,4.65
2023-01-15T15:49:42.993Z,4.73
2023-01-15T15:51:49.664Z,4.80
2023-01-15T15:54:05.139Z,4.80
2023-01-15T15:56:10.116Z,4.80
2023-01-15T15:58:24.087Z,4.86
2023-01-15T16:00:33.513Z,4.96
2023-01-15T16:02:44.210Z,4.96
2023-01-15T16:04:50.588Z,4.96
2023-01-15T16:06:55.437Z,4.97
2023-01-15T16:09:04.972Z,4.99
2023-01-15T16:11:13.738Z,4.93
2023-01-15T16:13:26.436Z,4.93
2023-01-15T16:15:34.065Z,4.95
2023-01-15T16:17:44.104Z,4.93
2023-01-15T16:19:49.794Z,4.96
2023-01-15T16:21:55.919Z,4.94
2023-01-15T16:24:04.440Z,4.95
2023-01-15T16:26:15.371Z,4.94
2023-01-15T16:28:27.525Z,4.95
2023-01-15T16:30:36.681Z,4.95
2023-01-15T16:32:49.867Z,4.98
2023-01-15T16:35:03.611Z,4.97
2023-01-15T16:37:27.115Z,4.90
2023-01-15T16:39:39.966Z,4.89
2023-01-15T16:41:48.561Z,4.81
2023-01-15T16:43:58.405Z,4.85
2023-01-15T16:46:07.426Z,4.86
2023-01-15T16:48:30.074Z,4.77
2023-01-15T16:50:36.055Z,4.82
2023-01-15T16:52:54.643Z,4.86
2023-01-15T16:55:01.315Z,4.87
2023-01-15T16:57:08.008Z,4.90
2023-01-15T16:59:19.560Z,4.95
2023-01-15T17:01:35.312Z,4.95
2023-01-15T17:03:43.898Z,4.85
2023-01-15T17:05:50.145Z,4.87
2023-01-15T17:07:58.061Z,4.85
2023-01-15T17:10:04.508Z,4.82
2023-01-15T17:12:12.272Z,4.75
2023-01-15T17:14:24.518Z,4.78
2023-01-15T17:16:29.401Z,4.76
2023-01-15T17:18:34.783Z,4.78
2023-01-15T17:20:44.191Z,4.74
2023-01-15T17:22:50.778Z,4.75
2023-01-15T17:24:57.652Z,4.75
2023-01-15T17:27:02.559Z,4.74
2023-01-15T17:29:07.426Z,4.71
2023-01-15T17:31:23.102Z,4.70
2023-01-15T17:33:33.232Z,4.69
2023-01-15T17:35:42.933Z,4.66
2023-01-15T17:37:47.847Z,4.68
2023-01-15T17:39:52.807Z,4.67
2023-01-15T17:41:57.729Z,4.65
2023-01-15T17:44:03.065Z,4.64
2023-01-15T17:46:08.381Z,4.65
2023-01-15T17:48:13.662Z,4.62
2023-01-15T17:50:20.240Z,4.61
2023-01-15T17:52:27.701Z,4.59
2023-01-15T17:54:44.991Z,4.58
2023-01-15T17:57:02.226Z,4.57
2023-01-15T17:59:19.539Z,4.54
2023-01-15T18:01:39.844Z,4.53
2023-01-15T18:04:02.324Z,4.51
2023-01-15T18:06:08.715Z,4.48
2023-01-15T18:08:18.843Z,4.46
2023-01-15T18:10:23.814Z,4.45
2023-01-15T18:12:28.896Z,4.44
2023-01-15T18:14:34.050Z,4.40
2023-01-15T18:16:39.161Z,4.34
2023-01-15T18:18:43.767Z,4.29
2023-01-15T18:20:51.394Z,4.24
2023-01-15T18:22:56.607Z,4.27
2023-01-15T18:25:04.064Z,4.19
2023-01-15T18:27:08.872Z,4.16
2023-01-15T18:29:13.908Z,4.18
2023-01-15T18:31:18.616Z,4.16
2023-01-15T18:33:23.411Z,4.18
2023-01-15T18:35:28.215Z,4.23
2023-01-15T18:37:34.550Z,4.25
2023-01-15T18:39:39.843Z,4.28
2023-01-15T18:41:59.710Z,4.32
2023-01-15T18:44:17.554Z,4.30
2023-01-15T18:46:35.046Z,4.29
2023-01-15T18:48:39.895Z,4.30
2023-01-15T18:50:44.985Z,4.31
2023-01-15T18:52:55.894Z,4.31
2023-01-15T18:55:00.748Z,4.34
2023-01-15T18:57:08.723Z,4.35
2023-01-15T18:59:15.902Z,4.31
2023-01-15T19:01:20.810Z,4.33
2023-01-15T19:03:26.294Z,4.36
2023-01-15T19:05:31.189Z,4.40
2023-01-15T19:07:38.319Z,4.40
2023-01-15T19:09:43.200Z,4.43
2023-01-15T19:11:47.976Z,4.35
2023-01-15T19:14:07.669Z,4.41
2023-01-15T19:16:25.723Z,4.41
2023-01-15T19:18:53.491Z,4.37
2023-01-15T19:20:58.291Z,4.40
2023-01-15T19:23:03.403Z,4.31
2023-01-15T19:25:11.152Z,4.35
2023-01-15T19:27:16.777Z,4.45
2023-01-15T19:29:24.226Z,4.45
2023-01-15T19:31:41.495Z,4.45
2023-01-15T19:33:46.493Z,4.40
2023-01-15T19:35:55.762Z,4.49
2023-01-15T19:38:00.751Z,4.50
2023-01-15T19:40:06.066Z,4.49
2023-01-15T19:42:25.225Z,4.50
2023-01-15T19:44:45.010Z,4.46
2023-01-15T19:47:02.367Z,4.45
2023-01-15T19:49:24.162Z,4.47
2023-01-15T19:51:49.530Z,4.48
2023-01-15T19:53:54.385Z,4.55
2023-01-15T19:55:59.302Z,4.54
2023-01-15T19:58:05.881Z,4.50
2023-01-15T20:00:16.570Z,4.56
2023-01-15T20:02:22.474Z,4.59
2023-01-15T20:04:28.370Z,4.57
2023-01-15T20:06:33.815Z,4.68
2023-01-15T20:08:41.079Z,4.72
2023-01-15T20:10:47.781Z,4.82
2023-01-15T20:13:05.599Z,4.91
2023-01-15T20:15:13.549Z,4.94
2023-01-15T20:17:19.119Z,4.93
2023-01-15T20:19:23.923Z,4.95
2023-01-15T20:21:28.868Z,4.97
2023-01-15T20:23:33.948Z,5.00
2023-01-15T20:25:38.913Z,5.02
2023-01-15T20:27:44.749Z,4.94
2023-01-15T20:29:52.070Z,4.92
2023-01-15T20:31:59.805Z,4.89
2023-01-15T20:34:04.671Z,4.83
2023-01-15T20:36:10.697Z,4.82
2023-01-15T20:38:17.816Z,4.76
2023-01-15T20:40:27.108Z,4.71
2023-01-15T20:42:45.879Z,4.64
2023-01-15T20:44:55.589Z,4.57
2023-01-15T20:47:25.896Z,4.54
2023-01-15T20:49:32.612Z,4.47
2023-01-15T20:51:37.480Z,4.44
2023-01-15T20:53:43.467Z,4.41
2023-01-15T20:55:57.378Z,4.32
2023-01-15T20:58:04.999Z,4.29
2023-01-15T21:00:15.892Z,4.31
2023-01-15T21:02:25.869Z,4.34
2023-01-15T21:04:33.401Z,4.30
2023-01-15T21:06:38.556Z,4.24
2023-01-15T21:08:46.516Z,4.24
2023-01-15T21:10:55.432Z,4.21
2023-01-15T21:13:00.456Z,4.21
2023-01-15T21:15:05.341Z,4.18
2023-01-15T21:17:10.478Z,4.15
2023-01-15T21:19:21.227Z,4.11
2023-01-15T21:21:26.244Z,4.11
2023-01-15T21:23:31.014Z,4.09
2023-01-15T21:25:38.288Z,4.09
2023-01-15T21:27:43.320Z,4.10
2023-01-15T21:29:51.840Z,4.09
2023-01-15T21:31:56.811Z,4.07
2023-01-15T21:34:01.666Z,4.06
2023-01-15T21:36:15.025Z,4.09
2023-01-15T21:38:19.871Z,4.05
2023-01-15T21:40:27.107Z,4.03
2023-01-15T21:42:44.358Z,3.99
2023-01-15T21:44:49.267Z,4.03
2023-01-15T21:46:55.287Z,3.97
2023-01-15T21:49:01.294Z,3.99
2023-01-15T21:51:11.824Z,4.00
2023-01-15T21:53:16.621Z,4.00
2023-01-15T21:55:21.498Z,3.97
2023-01-15T21:57:26.309Z,3.93
2023-01-15T21:59:34.037Z,3.93
2023-01-15T22:01:43.036Z,3.92
2023-01-15T22:03:48.120Z,3.94
2023-01-15T22:05:53.039Z,3.93
2023-01-15T22:08:03.238Z,3.90
2023-01-15T22:10:09.269Z,3.89
2023-01-15T22:12:15.349Z,3.82
2023-01-15T22:14:23.783Z,3.79
2023-01-15T22:16:28.645Z,3.75
2023-01-15T22:18:34.173Z,3.73
2023-01-15T22:20:39.388Z,3.75
2023-01-15T22:22:44.002Z,3.72
2023-01-15T22:24:54.278Z,3.69
2023-01-15T22:26:59.208Z,3.69
2023-01-15T22:29:04.122Z,3.67
2023-01-15T22:31:09.510Z,3.69
2023-01-15T22:33:14.450Z,3.66
2023-01-15T22:35:19.352Z,3.67
2023-01-15T22:37:24.111Z,3.66
2023-01-15T22:39:30.143Z,3.67
2023-01-15T22:41:50.103Z,3.68
2023-01-15T22:43:54.912Z,3.61
2023-01-15T22:45:59.790Z,3.63
2023-01-15T22:48:04.684Z,3.65
2023-01-15T22:50:10.192Z,3.64
2023-01-15T22:52:15.725Z,3.62
2023-01-15T22:54:21.127Z,3.62
2023-01-15T22:56:27.221Z,3.63
2023-01-15T22:58:34.676Z,3.64
2023-01-15T23:00:39.496Z,3.61
2023-01-15T23:03:05.244Z,3.60
2023-01-15T23:05:11.097Z,3.58
2023-01-15T23:07:15.946Z,3.58
2023-01-15T23:09:21.397Z,3.53
2023-01-15T23:11:26.813Z,3.57
2023-01-15T23:13:36.349Z,3.54
2023-01-15T23:15:41.497Z,3.57
2023-01-15T23:17:46.706Z,3.56
2023-01-15T23:19:53.815Z,3.54
2023-01-15T23:22:00.573Z,3.54
2023-01-15T23:24:05.848Z,3.56
2023-01-15T23:26:12.671Z,3.56
2023-01-15T23:28:17.917Z,3.59
2023-01-15T23:30:25.579Z,3.63
2023-01-15T23:32:30.392Z,3.62
2023-01-15T23:34:35.383Z,3.62
2023-01-15T23:36:40.213Z,3.58
2023-01-15T23:38:46.775Z,3.59
2023-01-15T23:40:54.911Z,3.62
2023-01-15T23:43:12.219Z,3.60
2023-01-15T23:45:29.540Z,3.60
2023-01-15T23:47:36.968Z,3.56
2023-01-15T23:49:42.026Z,3.55
2023-01-15T23:51:46.994Z,3.51
2023-01-15T23:53:52.284Z,3.49
2023-01-15T23:55:59.557Z,3.47
2023-01-15T23:58:04.355Z,3.49
